Time;durP1;ratioP1;P1;durP2;ratioP2;P2;SDS_P1;SDS_P2;PMS_P1;PMS_P2;Temp;Humidity;BMP_temperature;BMP_pressure;BME280_temperature;BME280_humidity;BME280_pressure;Samples;Min_cycle;Max_cycle;Signal;HPM_P1;HPM_P2
2022/05/13 00:01:31;;;;;;;8.25;2.80;;;;;;;;;;4898726;29;20494;-68
2022/05/13 00:03:58;;;;;;;8.55;2.80;;;;;;;;;;4899153;29;20029;-68
2022/05/13 00:06:24;;;;;;;7.60;2.70;;;;;;;;;;4898269;29;20029;-68
2022/05/13 00:08:51;;;;;;;10.88;3.08;;;;;;;;;;4898074;29;20023;-68
2022/05/13 00:11:17;;;;;;;8.75;2.92;;;;;;;;;;4898363;29;20042;-68
2022/05/13 00:13:44;;;;;;;9.10;3.13;;;;;;;;;;4898521;29;20039;-68
2022/05/13 00:16:10;;;;;;;7.53;2.97;;;;;;;;;;4899143;29;20028;-68
2022/05/13 00:18:37;;;;;;;8.77;2.67;;;;;;;;;;4898197;29;20040;-68
2022/05/13 00:21:03;;;;;;;6.57;2.85;;;;;;;;;;4897865;29;20220;-68
2022/05/13 00:23:30;;;;;;;9.20;2.85;;;;;;;;;;4897823;29;20549;-68
2022/05/13 00:25:56;;;;;;;8.57;2.47;;;;;;;;;;4898295;29;20029;-68
2022/05/13 00:28:23;;;;;;;9.40;2.85;;;;;;;;;;4898493;29;20040;-68
2022/05/13 00:30:49;;;;;;;9.57;3.22;;;;;;;;;;4898919;29;20036;-68
2022/05/13 00:33:16;;;;;;;11.75;3.05;;;;;;;;;;4897890;29;20033;-68
2022/05/13 00:35:42;;;;;;;6.78;2.78;;;;;;;;;;4897858;29;20508;-70
2022/05/13 00:38:08;;;;;;;6.88;3.08;;;;;;;;;;4897688;29;20024;-70
2022/05/13 00:40:36;;;;;;;9.30;2.90;;;;;;;;;;4897787;29;20502;-70
2022/05/13 00:43:04;;;;;;;7.75;2.83;;;;;;;;;;4898415;29;20031;-70
2022/05/13 00:45:33;;;;;;;8.77;2.72;;;;;;;;;;4897755;29;20368;-70
2022/05/13 00:48:00;;;;;;;4.88;2.67;;;;;;;;;;4897840;29;20367;-70
2022/05/13 00:50:28;;;;;;;8.00;2.95;;;;;;;;;;4897615;29;20099;-70
2022/05/13 00:52:54;;;;;;;10.90;2.97;;;;;;;;;;4897237;29;20032;-70
2022/05/13 00:55:23;;;;;;;12.05;3.50;;;;;;;;;;4897899;29;20041;-69
2022/05/13 00:57:51;;;;;;;9.98;3.03;;;;;;;;;;4897330;29;20039;-70
2022/05/13 01:00:18;;;;;;;8.02;3.33;;;;;;;;;;4897428;29;20027;-70
2022/05/13 01:02:45;;;;;;;8.57;3.05;;;;;;;;;;4897803;29;20033;-69
2022/05/13 01:05:13;;;;;;;10.48;3.65;;;;;;;;;;4897405;29;20401;-69
2022/05/13 01:07:40;;;;;;;7.00;2.72;;;;;;;;;;4897256;29;20595;-69
2022/05/13 01:10:08;;;;;;;6.10;2.95;;;;;;;;;;4898179;29;20029;-69
2022/05/13 01:12:36;;;;;;;13.95;3.30;;;;;;;;;;4897169;29;20039;-70
2022/05/13 01:15:05;;;;;;;12.60;3.20;;;;;;;;;;4897608;29;20029;-69
2022/05/13 01:20:20;;;;;;;6.53;3.10;;;;;;;;;;4896996;29;20024;-70
2022/05/13 01:22:47;;;;;;;6.05;2.72;;;;;;;;;;4882349;29;20036;-70
2022/05/13 01:25:16;;;;;;;6.85;3.20;;;;;;;;;;4894084;29;20033;-69
2022/05/13 01:27:43;;;;;;;6.90;3.38;;;;;;;;;;4897594;29;20047;-69
2022/05/13 01:30:12;;;;;;;9.27;3.60;;;;;;;;;;4897314;29;20030;-69
2022/05/13 01:32:38;;;;;;;7.50;2.85;;;;;;;;;;4897053;29;20045;-69
2022/05/13 01:35:05;;;;;;;6.07;2.78;;;;;;;;;;4897065;29;20405;-69
2022/05/13 01:37:32;;;;;;;6.38;2.95;;;;;;;;;;4896743;29;20040;-70
2022/05/13 01:40:01;;;;;;;6.78;3.13;;;;;;;;;;4897397;29;20025;-69
2022/05/13 01:42:28;;;;;;;11.95;3.35;;;;;;;;;;4927048;29;20040;-70
2022/05/13 01:44:55;;;;;;;9.45;3.10;;;;;;;;;;4896948;29;20020;-69
2022/05/13 01:47:21;;;;;;;11.93;3.15;;;;;;;;;;4895685;29;20043;-70
2022/05/13 01:49:47;;;;;;;6.90;3.45;;;;;;;;;;4896540;29;20021;-69
2022/05/13 01:52:14;;;;;;;10.40;3.42;;;;;;;;;;4897387;29;20067;-70
2022/05/13 01:54:40;;;;;;;6.35;3.03;;;;;;;;;;4896768;29;20033;-70
2022/05/13 01:57:06;;;;;;;7.35;3.20;;;;;;;;;;4896893;29;20036;-69
2022/05/13 01:59:33;;;;;;;7.88;3.83;;;;;;;;;;4896703;29;20507;-69
2022/05/13 02:01:59;;;;;;;5.55;3.10;;;;;;;;;;4896912;29;20031;-70
2022/05/13 02:04:25;;;;;;;4.85;3.20;;;;;;;;;;4896790;29;20024;-69
2022/05/13 02:06:52;;;;;;;10.20;3.67;;;;;;;;;;4897474;29;20043;-69
2022/05/13 02:09:18;;;;;;;6.78;3.40;;;;;;;;;;4896487;29;20390;-69
2022/05/13 02:11:45;;;;;;;9.50;3.35;;;;;;;;;;4896826;29;20047;-69
2022/05/13 02:14:16;;;;;;;5.95;3.20;;;;;;;;;;4896744;29;20013;-70
2022/05/13 02:16:42;;;;;;;6.68;3.25;;;;;;;;;;4911262;29;20403;-70
2022/05/13 02:19:09;;;;;;;11.10;3.50;;;;;;;;;;4896825;29;20021;-69
2022/05/13 02:21:35;;;;;;;9.05;3.78;;;;;;;;;;4896323;29;20051;-69
2022/05/13 02:24:02;;;;;;;8.45;3.42;;;;;;;;;;4896491;29;20031;-69
2022/05/13 02:26:28;;;;;;;10.80;3.58;;;;;;;;;;4896477;29;20031;-69
2022/05/13 02:28:54;;;;;;;8.00;3.08;;;;;;;;;;4898983;29;20479;-70
2022/05/13 02:31:21;;;;;;;6.80;3.47;;;;;;;;;;4900943;29;20024;-70
2022/05/13 02:33:47;;;;;;;11.02;3.38;;;;;;;;;;4900113;29;20033;-69
2022/05/13 02:36:14;;;;;;;9.88;3.33;;;;;;;;;;4900065;29;20024;-69
2022/05/13 02:38:40;;;;;;;12.00;3.22;;;;;;;;;;4900405;29;20039;-70
2022/05/13 02:41:13;;;;;;;8.27;3.20;;;;;;;;;;4900218;29;20417;-69
2022/05/13 02:43:39;;;;;;;10.75;3.75;;;;;;;;;;4900414;29;20036;-69
2022/05/13 02:46:05;;;;;;;8.13;3.47;;;;;;;;;;4900581;29;20021;-69
2022/05/13 02:48:32;;;;;;;12.63;3.47;;;;;;;;;;4899700;29;20526;-70
2022/05/13 02:50:58;;;;;;;5.75;2.95;;;;;;;;;;4900081;29;20028;-69
2022/05/13 02:53:25;;;;;;;7.45;3.40;;;;;;;;;;4899859;29;20029;-69
2022/05/13 02:55:51;;;;;;;10.10;3.65;;;;;;;;;;4900106;29;20044;-69
2022/05/13 02:58:18;;;;;;;7.90;3.13;;;;;;;;;;4900181;29;20055;-69
2022/05/13 03:00:45;;;;;;;14.52;3.33;;;;;;;;;;4900242;29;20033;-69
2022/05/13 03:03:11;;;;;;;7.45;3.33;;;;;;;;;;4899454;29;20025;-69
2022/05/13 03:05:38;;;;;;;8.77;3.58;;;;;;;;;;4899616;29;20036;-69
2022/05/13 03:08:06;;;;;;;7.95;3.58;;;;;;;;;;4899625;29;20032;-69
2022/05/13 03:10:36;;;;;;;7.50;3.35;;;;;;;;;;4899862;29;20032;-69
2022/05/13 03:13:03;;;;;;;6.90;3.08;;;;;;;;;;4900149;29;20051;-69
2022/05/13 03:15:30;;;;;;;9.23;3.40;;;;;;;;;;4899731;29;20016;-69
2022/05/13 03:17:56;;;;;;;7.18;3.58;;;;;;;;;;4899364;29;20021;-69
2022/05/13 03:20:23;;;;;;;7.57;3.17;;;;;;;;;;4899033;29;20021;-69
2022/05/13 03:22:51;;;;;;;5.57;3.58;;;;;;;;;;4899663;29;20038;-69
2022/05/13 03:25:18;;;;;;;8.02;3.58;;;;;;;;;;4899753;29;20409;-69
2022/05/13 03:27:45;;;;;;;10.57;3.75;;;;;;;;;;4930274;29;20035;-69
2022/05/13 03:30:13;;;;;;;9.95;3.72;;;;;;;;;;4899277;29;20028;-70
2022/05/13 03:32:39;;;;;;;11.52;3.33;;;;;;;;;;4898698;29;20367;-69
2022/05/13 03:35:07;;;;;;;8.38;3.30;;;;;;;;;;4899056;29;20028;-69
2022/05/13 03:37:33;;;;;;;7.15;3.97;;;;;;;;;;4899162;29;20025;-69
2022/05/13 03:39:59;;;;;;;5.53;3.17;;;;;;;;;;4899204;29;20032;-69
2022/05/13 03:42:26;;;;;;;9.43;3.50;;;;;;;;;;4898729;29;20028;-70
2022/05/13 03:44:53;;;;;;;7.63;3.25;;;;;;;;;;4898868;29;20486;-69
2022/05/13 03:47:19;;;;;;;12.20;4.13;;;;;;;;;;4898826;29;20063;-70
2022/05/13 03:49:46;;;;;;;7.15;3.58;;;;;;;;;;4899043;29;20539;-70
2022/05/13 03:52:13;;;;;;;8.90;3.20;;;;;;;;;;4895346;29;20041;-70
2022/05/13 03:54:39;;;;;;;8.38;3.53;;;;;;;;;;4899002;29;20039;-69
2022/05/13 03:57:06;;;;;;;6.30;3.17;;;;;;;;;;4898570;29;20376;-69
2022/05/13 03:59:33;;;;;;;7.53;3.58;;;;;;;;;;4898539;29;20471;-70
2022/05/13 04:01:59;;;;;;;11.93;3.60;;;;;;;;;;4898706;29;20027;-69
2022/05/13 04:04:29;;;;;;;10.40;3.63;;;;;;;;;;4897505;29;20033;-69
2022/05/13 04:09:43;;;;;;;8.60;4.05;;;;;;;;;;4898498;29;20041;-69
2022/05/13 04:17:50;;;;;;;7.47;3.30;;;;;;;;;;4896161;29;20422;-70
2022/05/13 04:20:21;;;;;;;5.85;3.25;;;;;;;;;;4896362;29;20033;-69
2022/05/13 04:22:47;;;;;;;8.82;3.80;;;;;;;;;;4896246;29;20417;-69
2022/05/13 04:25:13;;;;;;;10.13;3.75;;;;;;;;;;4897073;29;20044;-69
2022/05/13 04:27:41;;;;;;;7.57;3.35;;;;;;;;;;4896015;29;20494;-69
2022/05/13 04:30:08;;;;;;;6.93;3.55;;;;;;;;;;4895529;29;20036;-69
2022/05/13 04:32:34;;;;;;;13.70;3.42;;;;;;;;;;4895710;29;20055;-69
2022/05/13 04:35:01;;;;;;;8.05;3.85;;;;;;;;;;4880313;29;20028;-70
2022/05/13 04:37:28;;;;;;;6.88;3.67;;;;;;;;;;4896286;29;20054;-69
2022/05/13 04:39:54;;;;;;;12.65;4.00;;;;;;;;;;4896144;29;20491;-69
2022/05/13 04:45:07;;;;;;;9.20;3.38;;;;;;;;;;4895254;29;20524;-69
2022/05/13 04:50:19;;;;;;;11.50;3.42;;;;;;;;;;4895588;29;20436;-69
2022/05/13 04:52:46;;;;;;;6.47;3.58;;;;;;;;;;4896839;29;20042;-70
2022/05/13 04:55:12;;;;;;;6.82;3.28;;;;;;;;;;4898562;29;20035;-69
2022/05/13 04:57:38;;;;;;;8.73;3.80;;;;;;;;;;4897530;29;20029;-69
2022/05/13 05:00:07;;;;;;;6.75;3.58;;;;;;;;;;4897086;29;20072;-69
2022/05/13 05:02:34;;;;;;;6.82;4.13;;;;;;;;;;4897514;29;20028;-69
2022/05/13 05:05:00;;;;;;;8.48;3.42;;;;;;;;;;4897741;29;20059;-69
2022/05/13 05:07:26;;;;;;;7.20;3.47;;;;;;;;;;4897635;29;20075;-69
2022/05/13 05:09:53;;;;;;;7.18;3.67;;;;;;;;;;4897727;29;20043;-69
2022/05/13 05:12:19;;;;;;;8.88;3.83;;;;;;;;;;4897181;29;20037;-69
2022/05/13 05:14:45;;;;;;;9.40;3.30;;;;;;;;;;4896918;29;20387;-69
2022/05/13 05:17:12;;;;;;;10.65;3.70;;;;;;;;;;4897329;29;20079;-69
2022/05/13 05:19:39;;;;;;;12.73;4.35;;;;;;;;;;4897308;29;20044;-69
2022/05/13 05:22:05;;;;;;;10.27;3.60;;;;;;;;;;4897654;29;20040;-70
2022/05/13 05:24:32;;;;;;;11.75;3.33;;;;;;;;;;4897108;29;20028;-69
2022/05/13 05:26:59;;;;;;;11.98;3.67;;;;;;;;;;4897082;29;20398;-69
2022/05/13 05:29:25;;;;;;;7.75;3.15;;;;;;;;;;4896592;29;20379;-69
2022/05/13 05:31:51;;;;;;;6.13;4.00;;;;;;;;;;4897237;29;20040;-69
2022/05/13 05:34:18;;;;;;;8.95;3.83;;;;;;;;;;4897569;29;20029;-69
2022/05/13 05:36:44;;;;;;;21.55;4.25;;;;;;;;;;4897504;29;20033;-70
2022/05/13 05:39:11;;;;;;;9.50;3.50;;;;;;;;;;4896698;29;20024;-69
2022/05/13 05:41:37;;;;;;;10.55;3.95;;;;;;;;;;4897066;29;20092;-69
2022/05/13 05:44:04;;;;;;;6.03;3.70;;;;;;;;;;4896899;29;20027;-70
2022/05/13 05:46:30;;;;;;;10.43;3.53;;;;;;;;;;4897266;29;20029;-70
2022/05/13 05:48:57;;;;;;;12.68;3.65;;;;;;;;;;4895263;29;20033;-69
2022/05/13 05:51:23;;;;;;;7.93;3.70;;;;;;;;;;4896816;29;20035;-69
2022/05/13 05:59:20;;;;;;;16.58;3.55;;;;;;;;;;4896730;29;20036;-70
2022/05/13 06:01:46;;;;;;;9.05;3.78;;;;;;;;;;4882241;29;20027;-69
2022/05/13 06:04:12;;;;;;;11.02;3.67;;;;;;;;;;4900489;29;20092;-69
2022/05/13 06:06:39;;;;;;;6.68;3.40;;;;;;;;;;4900512;29;20055;-69
2022/05/13 06:09:05;;;;;;;7.97;3.55;;;;;;;;;;4900328;29;20479;-69
2022/05/13 06:11:31;;;;;;;12.18;3.25;;;;;;;;;;4900165;29;20031;-70
2022/05/13 06:13:59;;;;;;;10.30;3.47;;;;;;;;;;4900546;29;20025;-70
2022/05/13 06:16:26;;;;;;;12.57;3.63;;;;;;;;;;4900628;29;20375;-69
2022/05/13 06:18:53;;;;;;;7.53;3.33;;;;;;;;;;4900921;29;20031;-69
2022/05/13 06:21:19;;;;;;;12.13;3.40;;;;;;;;;;4900071;29;20428;-69
2022/05/13 06:23:46;;;;;;;10.63;3.25;;;;;;;;;;4900231;29;20503;-70
2022/05/13 06:26:12;;;;;;;5.53;2.95;;;;;;;;;;4900201;29;20037;-69
2022/05/13 06:28:39;;;;;;;9.60;2.85;;;;;;;;;;4900335;29;20478;-70
2022/05/13 06:31:05;;;;;;;6.68;2.60;;;;;;;;;;4931367;29;20033;-69
2022/05/13 06:33:31;;;;;;;6.15;2.67;;;;;;;;;;4899818;29;20104;-70
2022/05/13 06:35:57;;;;;;;8.88;3.05;;;;;;;;;;4898152;29;20520;-69
2022/05/13 06:38:25;;;;;;;7.40;3.13;;;;;;;;;;4899312;29;20072;-70
2022/05/13 06:40:52;;;;;;;8.38;3.33;;;;;;;;;;4899251;29;20028;-69
2022/05/13 06:43:19;;;;;;;6.95;2.78;;;;;;;;;;4900085;29;20028;-69
2022/05/13 06:45:45;;;;;;;8.00;2.95;;;;;;;;;;4899027;29;20401;-70
2022/05/13 06:48:12;;;;;;;8.57;3.03;;;;;;;;;;4898757;29;20438;-69
2022/05/13 06:50:38;;;;;;;9.02;3.25;;;;;;;;;;4899382;29;20095;-69
2022/05/13 06:53:05;;;;;;;10.52;3.13;;;;;;;;;;4899285;29;20040;-69
2022/05/13 06:55:31;;;;;;;11.32;3.20;;;;;;;;;;4899095;29;20032;-70
2022/05/13 06:57:58;;;;;;;10.23;2.97;;;;;;;;;;4900163;29;20035;-69
2022/05/13 07:00:24;;;;;;;8.40;3.08;;;;;;;;;;4899052;29;20497;-70
2022/05/13 07:02:51;;;;;;;10.25;2.92;;;;;;;;;;4899333;29;20033;-69
2022/05/13 07:05:20;;;;;;;8.52;3.30;;;;;;;;;;4899311;29;20381;-69
2022/05/13 07:07:46;;;;;;;8.85;2.80;;;;;;;;;;4898606;29;20393;-70
2022/05/13 07:10:13;;;;;;;8.55;3.10;;;;;;;;;;4899380;29;20486;-69
2022/05/13 07:12:40;;;;;;;10.50;3.15;;;;;;;;;;4899092;29;20055;-69
2022/05/13 07:15:08;;;;;;;8.60;3.30;;;;;;;;;;4898008;29;20494;-69
2022/05/13 07:17:34;;;;;;;10.20;3.33;;;;;;;;;;4898999;29;20450;-69
2022/05/13 07:20:01;;;;;;;6.88;2.67;;;;;;;;;;4898795;29;20021;-69
2022/05/13 07:22:27;;;;;;;6.00;2.88;;;;;;;;;;4898894;29;20067;-69
2022/05/13 07:24:54;;;;;;;8.73;2.83;;;;;;;;;;4899095;29;20048;-69
2022/05/13 07:27:20;;;;;;;5.93;2.78;;;;;;;;;;4898788;29;20041;-69
2022/05/13 07:29:46;;;;;;;8.77;3.55;;;;;;;;;;4898712;29;20031;-69
2022/05/13 07:32:13;;;;;;;8.48;3.28;;;;;;;;;;4898880;29;20401;-69
2022/05/13 07:34:39;;;;;;;9.57;2.92;;;;;;;;;;4898762;29;20037;-68
2022/05/13 07:37:05;;;;;;;8.45;3.05;;;;;;;;;;4899597;29;20051;-69
2022/05/13 07:42:17;;;;;;;7.68;3.15;;;;;;;;;;4898026;29;20029;-68
2022/05/13 07:44:43;;;;;;;10.73;3.58;;;;;;;;;;4898921;29;20029;-69
2022/05/13 07:47:10;;;;;;;6.78;3.10;;;;;;;;;;4898856;29;20039;-69
2022/05/13 07:49:37;;;;;;;8.57;2.78;;;;;;;;;;4898447;29;20025;-69
2022/05/13 07:52:04;;;;;;;10.45;3.08;;;;;;;;;;4898539;29;20032;-68
2022/05/13 07:54:30;;;;;;;10.70;3.40;;;;;;;;;;4898126;29;20032;-68
2022/05/13 07:56:57;;;;;;;14.18;3.03;;;;;;;;;;4898476;29;20540;-68
2022/05/13 07:59:23;;;;;;;8.20;3.10;;;;;;;;;;4898376;29;20525;-68
2022/05/13 08:01:49;;;;;;;10.00;3.15;;;;;;;;;;4898297;29;20027;-68
2022/05/13 08:04:16;;;;;;;7.53;2.90;;;;;;;;;;4898546;29;20036;-68
2022/05/13 08:06:44;;;;;;;7.40;2.80;;;;;;;;;;4896981;29;20037;-68
2022/05/13 08:09:11;;;;;;;8.00;2.95;;;;;;;;;;4898160;29;20496;-69
2022/05/13 08:11:38;;;;;;;9.75;2.85;;;;;;;;;;4897920;29;20029;-68
2022/05/13 08:14:05;;;;;;;9.05;3.03;;;;;;;;;;4898260;29;20032;-69
2022/05/13 08:16:33;;;;;;;11.23;3.10;;;;;;;;;;4898167;29;20498;-69
2022/05/13 08:19:00;;;;;;;12.80;3.58;;;;;;;;;;4898628;29;20040;-68
2022/05/13 08:21:26;;;;;;;10.20;2.92;;;;;;;;;;4897566;29;20041;-69
2022/05/13 08:23:53;;;;;;;21.80;3.60;;;;;;;;;;4897977;29;20027;-68
2022/05/13 08:26:19;;;;;;;13.48;3.13;;;;;;;;;;4897698;29;20031;-69
2022/05/13 08:28:46;;;;;;;12.18;3.05;;;;;;;;;;4898179;29;20097;-69
2022/05/13 08:31:14;;;;;;;7.32;2.40;;;;;;;;;;4898683;29;20047;-68
2022/05/13 08:33:41;;;;;;;9.35;2.85;;;;;;;;;;4897794;29;20037;-69
2022/05/13 08:36:08;;;;;;;10.32;2.60;;;;;;;;;;4897741;29;20020;-68
2022/05/13 08:38:37;;;;;;;9.40;3.05;;;;;;;;;;4897856;29;20100;-68
2022/05/13 08:41:06;;;;;;;10.45;3.00;;;;;;;;;;4897750;29;20025;-69
2022/05/13 08:43:35;;;;;;;12.32;2.97;;;;;;;;;;4897453;29;20028;-69
2022/05/13 08:46:20;;;;;;;8.73;2.60;;;;;;;;;;4898216;29;20036;-69
2022/05/13 08:49:00;;;;;;;9.20;2.80;;;;;;;;;;4897728;29;20435;-69
2022/05/13 08:51:29;;;;;;;12.70;3.17;;;;;;;;;;4897653;29;20367;-69
2022/05/13 08:54:01;;;;;;;5.97;2.58;;;;;;;;;;4912010;29;20048;-68
2022/05/13 08:56:30;;;;;;;10.32;2.90;;;;;;;;;;4897338;29;20031;-69
2022/05/13 08:59:07;;;;;;;8.88;2.75;;;;;;;;;;4897458;29;20029;-69
2022/05/13 09:01:40;;;;;;;9.10;2.72;;;;;;;;;;4897193;29;20034;-69
2022/05/13 09:04:10;;;;;;;11.93;2.85;;;;;;;;;;4897759;29;20035;-69
2022/05/13 09:07:06;;;;;;;10.00;2.92;;;;;;;;;;4897119;29;20028;-69
2022/05/13 09:09:33;;;;;;;8.60;2.38;;;;;;;;;;4895701;29;20028;-69
2022/05/13 09:12:02;;;;;;;10.65;2.72;;;;;;;;;;4897387;29;20486;-69
2022/05/13 09:14:29;;;;;;;11.18;2.97;;;;;;;;;;4897194;29;20025;-66
2022/05/13 09:17:08;;;;;;;9.63;2.67;;;;;;;;;;4897132;29;20039;-69
2022/05/13 09:19:36;;;;;;;18.73;3.33;;;;;;;;;;4896677;29;20494;-69
2022/05/13 09:22:03;;;;;;;11.02;3.10;;;;;;;;;;4897192;29;20061;-69
2022/05/13 09:24:30;;;;;;;9.10;3.00;;;;;;;;;;4896973;29;20032;-69
2022/05/13 09:26:56;;;;;;;8.02;2.92;;;;;;;;;;4897070;29;20012;-69
2022/05/13 09:29:22;;;;;;;11.05;2.92;;;;;;;;;;4896547;29;20111;-67
2022/05/13 09:32:09;;;;;;;10.57;2.95;;;;;;;;;;4896511;29;20012;-67
2022/05/13 09:34:39;;;;;;;12.00;2.90;;;;;;;;;;4896430;29;24461;-67
2022/05/13 09:37:06;;;;;;;14.68;2.78;;;;;;;;;;4897052;29;20031;-66
2022/05/13 09:39:37;;;;;;;7.88;2.70;;;;;;;;;;4896444;29;20075;-66
2022/05/13 09:42:22;;;;;;;9.05;3.03;;;;;;;;;;4896635;29;20033;-69
2022/05/13 09:44:48;;;;;;;9.75;2.90;;;;;;;;;;4896565;29;20467;-69
2022/05/13 09:47:17;;;;;;;8.63;2.80;;;;;;;;;;4896437;29;20037;-66
2022/05/13 09:49:46;;;;;;;8.70;2.83;;;;;;;;;;4896425;29;20039;-66
2022/05/13 09:52:26;;;;;;;6.82;2.78;;;;;;;;;;4892985;29;20504;-69
2022/05/13 09:54:53;;;;;;;16.70;3.60;;;;;;;;;;4896607;29;20048;-69
2022/05/13 09:57:29;;;;;;;11.52;2.58;;;;;;;;;;4896790;29;20032;-68
2022/05/13 10:00:11;;;;;;;10.93;3.00;;;;;;;;;;4896871;29;20027;-69
2022/05/13 10:02:39;;;;;;;9.23;2.75;;;;;;;;;;4896419;29;20036;-66
2022/05/13 10:05:21;;;;;;;7.63;2.30;;;;;;;;;;4896501;29;20020;-66
2022/05/13 10:07:54;;;;;;;11.68;2.63;;;;;;;;;;4881692;29;20490;-69
2022/05/13 10:15:56;;;;;;;11.35;2.88;;;;;;;;;;4896328;29;19918;-69
2022/05/13 10:18:29;;;;;;;9.68;2.88;;;;;;;;;;4895809;29;20021;-67
2022/05/13 10:21:06;;;;;;;11.75;3.20;;;;;;;;;;4896049;29;20044;-66
2022/05/13 10:23:38;;;;;;;8.88;2.60;;;;;;;;;;4896113;29;20021;-67
2022/05/13 10:26:07;;;;;;;8.68;2.80;;;;;;;;;;4896194;29;20108;-66
2022/05/13 10:28:39;;;;;;;14.80;2.97;;;;;;;;;;4895960;29;20108;-66
2022/05/13 10:31:06;;;;;;;11.02;2.78;;;;;;;;;;4896650;29;20080;-66
2022/05/13 10:33:32;;;;;;;8.73;2.70;;;;;;;;;;4895653;29;20033;-66
2022/05/13 10:36:01;;;;;;;13.93;2.97;;;;;;;;;;4895744;29;20502;-69
2022/05/13 10:38:30;;;;;;;9.32;2.80;;;;;;;;;;4896099;29;20021;-69
2022/05/13 10:40:59;;;;;;;13.33;2.80;;;;;;;;;;4895864;29;20040;-69
2022/05/13 10:44:01;;;;;;;8.75;2.72;;;;;;;;;;4896282;29;20036;-69
2022/05/13 10:46:31;;;;;;;10.80;2.95;;;;;;;;;;4854162;29;20392;-69
2022/05/13 10:48:58;;;;;;;11.48;3.05;;;;;;;;;;4856109;29;20402;-69
2022/05/13 10:51:30;;;;;;;7.80;2.92;;;;;;;;;;4860408;29;20406;-69
2022/05/13 10:53:59;;;;;;;14.30;2.88;;;;;;;;;;4860046;29;20576;-68
2022/05/13 10:56:26;;;;;;;11.18;2.90;;;;;;;;;;4860282;29;20055;-68
2022/05/13 10:59:18;;;;;;;10.27;3.00;;;;;;;;;;4860268;29;20041;-69
2022/05/13 11:01:49;;;;;;;11.73;2.72;;;;;;;;;;4857810;29;20037;-69
2022/05/13 11:04:21;;;;;;;8.18;2.85;;;;;;;;;;4857131;29;20515;-68
2022/05/13 11:06:51;;;;;;;8.70;2.50;;;;;;;;;;4860499;29;20561;-68
2022/05/13 11:09:35;;;;;;;15.25;3.25;;;;;;;;;;4859959;29;20026;-69
2022/05/13 11:12:25;;;;;;;10.88;3.17;;;;;;;;;;4860012;29;20037;-69
2022/05/13 11:14:52;;;;;;;;;;;;;;;;;;4865109;29;20038;-69
2022/05/13 11:17:36;;;;;;;11.68;2.95;;;;;;;;;;4859702;29;20403;-68
2022/05/13 11:20:12;;;;;;;6.72;2.58;;;;;;;;;;4861365;29;20036;-69
2022/05/13 11:22:40;;;;;;;8.05;2.78;;;;;;;;;;4899142;29;20060;-68
2022/05/13 11:28:00;;;;;;;7.45;2.50;;;;;;;;;;4897571;29;20032;-69
2022/05/13 11:30:50;;;;;;;7.50;2.83;;;;;;;;;;4898718;29;20508;-69
2022/05/13 11:33:16;;;;;;;8.27;2.95;;;;;;;;;;4898409;29;20056;-69
2022/05/13 11:35:55;;;;;;;7.75;3.10;;;;;;;;;;4899017;29;20020;-69
2022/05/13 11:38:24;;;;;;;7.60;2.67;;;;;;;;;;4898589;29;20035;-69
2022/05/13 11:40:54;;;;;;;13.05;3.00;;;;;;;;;;4899067;29;20033;-66
2022/05/13 11:43:38;;;;;;;5.50;2.65;;;;;;;;;;4899441;29;20031;-66
2022/05/13 11:46:31;;;;;;;10.02;2.97;;;;;;;;;;4898771;29;20148;-69
2022/05/13 11:49:11;;;;;;;7.70;2.60;;;;;;;;;;4893103;29;20036;-69
2022/05/13 11:51:38;;;;;;;9.98;2.90;;;;;;;;;;4892066;29;20445;-69
2022/05/13 11:54:04;;;;;;;9.13;3.10;;;;;;;;;;4892298;29;20045;-69
2022/05/13 11:56:33;;;;;;;12.85;3.05;;;;;;;;;;4892371;29;20029;-69
2022/05/13 11:59:01;;;;;;;10.57;3.08;;;;;;;;;;4894918;29;20127;-69
2022/05/13 12:01:36;;;;;;;6.38;2.58;;;;;;;;;;4893797;29;20025;-69
2022/05/13 12:04:14;;;;;;;8.18;2.75;;;;;;;;;;4903042;29;20032;-69
2022/05/13 12:06:50;;;;;;;4.82;2.70;;;;;;;;;;4894424;29;20051;-69
2022/05/13 12:09:30;;;;;;;5.93;2.95;;;;;;;;;;4891968;29;20047;-68
2022/05/13 12:11:59;;;;;;;6.57;2.83;;;;;;;;;;4872385;29;20029;-68
2022/05/13 12:14:44;;;;;;;10.77;3.27;;;;;;;;;;4897970;29;20041;-68
2022/05/13 12:17:16;;;;;;;6.70;2.90;;;;;;;;;;4891987;29;20039;-68
2022/05/13 12:20:01;;;;;;;9.75;2.97;;;;;;;;;;4895072;29;20474;-69
2022/05/13 12:22:31;;;;;;;8.23;2.85;;;;;;;;;;4892845;29;20445;-69
2022/05/13 12:25:12;;;;;;;7.45;2.90;;;;;;;;;;4890959;29;20063;-69
2022/05/13 12:27:46;;;;;;;10.63;3.08;;;;;;;;;;4897164;29;20037;-68
2022/05/13 12:30:12;;;;;;;7.00;3.55;;;;;;;;;;4897428;29;20405;-68
2022/05/13 12:32:41;;;;;;;8.38;3.10;;;;;;;;;;4897379;29;20041;-69
2022/05/13 12:38:16;;;;;;;7.30;3.33;;;;;;;;;;4886431;29;20429;-69
2022/05/13 12:40:51;;;;;;;9.82;3.65;;;;;;;;;;4897896;29;20020;-69
2022/05/13 12:43:19;;;;;;;11.45;3.25;;;;;;;;;;4894221;29;20039;-69
2022/05/13 12:45:59;;;;;;;7.43;3.17;;;;;;;;;;4897568;29;20024;-69
2022/05/13 12:48:26;;;;;;;;;;;;;;;;;;4897750;29;20032;-69
2022/05/13 12:50:54;;;;;;;9.30;3.80;;;;;;;;;;4897538;29;19941;-69
2022/05/13 12:53:29;;;;;;;10.07;4.45;;;;;;;;;;4927589;29;20040;-69
2022/05/13 12:55:57;;;;;;;10.95;3.58;;;;;;;;;;4897435;29;20032;-68
2022/05/13 12:58:24;;;;;;;7.90;3.80;;;;;;;;;;4897132;29;20382;-69
2022/05/13 13:00:52;;;;;;;10.15;3.95;;;;;;;;;;4896803;29;20042;-69
2022/05/13 13:03:19;;;;;;;12.18;3.80;;;;;;;;;;4897440;29;20021;-68
2022/05/13 13:05:56;;;;;;;12.63;4.25;;;;;;;;;;4896966;29;20087;-68
2022/05/13 13:08:26;;;;;;;11.82;4.20;;;;;;;;;;4896889;29;20028;-69
2022/05/13 13:10:57;;;;;;;8.73;4.00;;;;;;;;;;4927395;29;20041;-68
2022/05/13 13:13:42;;;;;;;11.13;3.40;;;;;;;;;;4896061;29;20301;-68
2022/05/13 13:16:14;;;;;;;10.15;4.13;;;;;;;;;;4897535;29;20037;-68
2022/05/13 13:18:40;;;;;;;12.43;4.18;;;;;;;;;;4896946;29;20549;-68
2022/05/13 13:21:09;;;;;;;11.45;3.80;;;;;;;;;;4896473;29;20037;-68
2022/05/13 13:23:38;;;;;;;11.73;4.10;;;;;;;;;;4896684;29;20045;-68
2022/05/13 13:26:07;;;;;;;14.73;4.03;;;;;;;;;;4896374;29;20040;-68
2022/05/13 13:28:35;;;;;;;7.15;4.03;;;;;;;;;;4896754;29;20031;-68
2022/05/13 13:31:03;;;;;;;11.93;3.80;;;;;;;;;;4897505;29;20030;-69
2022/05/13 13:33:32;;;;;;;7.68;3.65;;;;;;;;;;4896608;29;20574;-68
2022/05/13 13:36:09;;;;;;;8.80;3.72;;;;;;;;;;4896713;29;20386;-68
2022/05/13 13:38:36;;;;;;;8.77;3.65;;;;;;;;;;4896573;29;20028;-68
2022/05/13 13:41:02;;;;;;;12.55;4.60;;;;;;;;;;4896472;29;20042;-68
2022/05/13 13:43:30;;;;;;;10.70;3.58;;;;;;;;;;4895535;29;20033;-68
2022/05/13 13:45:56;;;;;;;11.93;4.68;;;;;;;;;;4897091;29;20553;-69
2022/05/13 13:48:29;;;;;;;10.93;4.38;;;;;;;;;;4896442;29;20025;-69
2022/05/13 13:50:57;;;;;;;11.15;3.67;;;;;;;;;;4896764;29;20031;-69
2022/05/13 13:53:49;;;;;;;11.85;4.05;;;;;;;;;;4896442;29;20041;-68
2022/05/13 13:56:18;;;;;;;11.30;3.47;;;;;;;;;;4896173;29;20545;-68
2022/05/13 13:58:45;;;;;;;10.70;3.80;;;;;;;;;;4896517;29;20402;-68
2022/05/13 14:01:17;;;;;;;8.70;3.40;;;;;;;;;;4897126;29;20021;-69
2022/05/13 14:03:44;;;;;;;10.48;3.72;;;;;;;;;;4896674;29;20025;-69
2022/05/13 14:06:16;;;;;;;10.10;3.83;;;;;;;;;;4896575;29;20024;-69
2022/05/13 14:08:44;;;;;;;9.77;3.95;;;;;;;;;;4896384;29;20047;-68
2022/05/13 14:11:15;;;;;;;11.63;4.22;;;;;;;;;;4895910;29;20414;-68
2022/05/13 14:13:43;;;;;;;11.07;4.32;;;;;;;;;;4896331;29;20433;-68
2022/05/13 14:16:15;;;;;;;14.07;4.45;;;;;;;;;;4896915;29;20031;-69
2022/05/13 14:18:42;;;;;;;9.23;4.10;;;;;;;;;;4896299;29;20035;-68
2022/05/13 14:21:11;;;;;;;10.48;4.07;;;;;;;;;;4895897;29;20409;-68
2022/05/13 14:23:38;;;;;;;9.50;3.90;;;;;;;;;;4896279;29;20038;-68
2022/05/13 14:26:05;;;;;;;9.65;3.83;;;;;;;;;;4898656;29;20398;-69
2022/05/13 14:28:34;;;;;;;9.68;4.10;;;;;;;;;;4899236;29;20031;-69
2022/05/13 14:31:06;;;;;;;7.45;3.72;;;;;;;;;;4898038;29;20504;-68
2022/05/13 14:33:37;;;;;;;12.13;4.03;;;;;;;;;;4899720;29;20042;-68
2022/05/13 14:36:05;;;;;;;11.55;4.35;;;;;;;;;;4899699;29;20016;-68
2022/05/13 14:41:40;;;;;;;7.93;4.15;;;;;;;;;;4899539;29;20024;-68
2022/05/13 14:44:07;;;;;;;11.35;4.18;;;;;;;;;;4900046;29;20079;-68
2022/05/13 14:46:33;;;;;;;9.95;4.35;;;;;;;;;;4898592;29;20033;-69
2022/05/13 14:49:00;;;;;;;13.82;4.55;;;;;;;;;;4900049;29;20359;-68
2022/05/13 14:51:27;;;;;;;7.13;4.03;;;;;;;;;;4899988;29;20031;-68
2022/05/13 14:54:00;;;;;;;13.20;4.72;;;;;;;;;;4899121;29;20036;-68
2022/05/13 14:56:28;;;;;;;14.57;4.72;;;;;;;;;;4899415;29;20052;-68
2022/05/13 14:58:59;;;;;;;13.90;4.25;;;;;;;;;;4899614;29;20043;-68
2022/05/13 15:01:30;;;;;;;10.63;4.45;;;;;;;;;;4899859;29;20033;-68
2022/05/13 15:03:59;;;;;;;15.40;4.20;;;;;;;;;;4899811;29;20043;-68
2022/05/13 15:06:28;;;;;;;15.63;4.68;;;;;;;;;;4897868;29;20025;-68
2022/05/13 15:09:06;;;;;;;8.27;4.60;;;;;;;;;;4898542;29;20043;-68
2022/05/13 15:11:34;;;;;;;10.10;4.00;;;;;;;;;;4899396;29;20028;-68
2022/05/13 15:14:01;;;;;;;14.13;4.30;;;;;;;;;;4899615;29;20040;-68
2022/05/13 15:16:31;;;;;;;11.02;4.30;;;;;;;;;;4899177;29;20510;-68
2022/05/13 15:18:58;;;;;;;9.30;4.63;;;;;;;;;;4899597;29;20032;-68
2022/05/13 15:21:25;;;;;;;13.45;4.53;;;;;;;;;;4899109;29;20421;-69
2022/05/13 15:23:51;;;;;;;10.15;4.75;;;;;;;;;;4898461;29;20016;-68
2022/05/13 15:26:22;;;;;;;10.98;5.25;;;;;;;;;;4898654;29;20021;-69
2022/05/13 15:28:49;;;;;;;9.43;4.28;;;;;;;;;;4884575;29;20028;-68